createdAt,value
2022-09-14T00:01:24.824Z,100576.47
2022-09-14T00:03:57.513Z,100579.44
2022-09-14T00:06:24.308Z,100576.69
2022-09-14T00:08:55.249Z,100576.72
2022-09-14T00:11:23.749Z,100577.72
2022-09-14T00:13:50.558Z,100577.53
2022-09-14T00:16:24.082Z,100569.78
2022-09-14T00:18:55.438Z,100567.47
2022-09-14T00:21:22.820Z,100566.63
2022-09-14T00:23:49.805Z,100563.47
2022-09-14T00:26:19.791Z,100567.25
2022-09-14T00:28:49.539Z,100555.06
2022-09-14T00:31:16.150Z,100561.16
2022-09-14T00:33:44.462Z,100556.97
2022-09-14T00:36:13.355Z,100558.88
2022-09-14T00:38:40.234Z,100557.41
2022-09-14T00:41:10.960Z,100561.16
2022-09-14T00:43:59.726Z,100551.94
2022-09-14T00:46:28.121Z,100534.75
2022-09-14T00:48:56.060Z,100529.88
2022-09-14T00:51:23.634Z,100527.59
2022-09-14T00:53:50.440Z,100519.00
2022-09-14T00:56:17.188Z,100520.25
2022-09-14T00:58:48.082Z,100519.81
2022-09-14T01:01:15.349Z,100514.38
2022-09-14T01:03:41.752Z,100509.53
2022-09-14T01:06:18.284Z,100505.78
2022-09-14T01:09:02.911Z,100510.78
2022-09-14T01:11:51.832Z,100508.88
2022-09-14T01:14:52.428Z,100506.78
2022-09-14T01:17:28.275Z,100503.22
2022-09-14T01:20:06.643Z,100500.72
2022-09-14T01:22:51.600Z,100501.16
2022-09-14T01:25:59.078Z,100501.56
2022-09-14T01:28:39.559Z,100509.72
2022-09-14T01:31:12.475Z,100503.44
2022-09-14T01:34:07.374Z,100500.09
2022-09-14T01:36:37.700Z,100499.66
2022-09-14T01:39:04.477Z,100492.53
2022-09-14T01:41:33.847Z,100487.28
2022-09-14T01:44:08.287Z,100485.84
2022-09-14T01:46:45.682Z,100489.19
2022-09-14T01:49:18.394Z,100485.41
2022-09-14T01:51:51.937Z,100484.78
2022-09-14T01:54:47.534Z,100483.94
2022-09-14T01:57:28.832Z,100477.22
2022-09-14T02:00:00.984Z,100477.44
2022-09-14T02:02:30.498Z,100473.03
2022-09-14T02:05:03.820Z,100474.28
2022-09-14T02:07:30.804Z,100465.91
2022-09-14T02:09:57.287Z,100473.44
2022-09-14T02:12:23.767Z,100468.66
2022-09-14T02:14:52.569Z,100475.75
2022-09-14T02:17:19.382Z,100471.78
2022-09-14T02:19:55.298Z,100468.00
2022-09-14T02:22:21.699Z,100464.44
2022-09-14T02:24:49.077Z,100460.66
2022-09-14T02:27:16.567Z,100459.19
2022-09-14T02:29:43.076Z,100453.53
2022-09-14T02:32:43.500Z,100458.13
2022-09-14T02:35:35.902Z,100452.25
2022-09-14T02:38:18.650Z,100457.53
2022-09-14T02:41:00.237Z,100448.09
2022-09-14T02:43:45.347Z,100445.78
2022-09-14T02:46:36.697Z,100441.81
2022-09-14T02:49:21.087Z,100445.16
2022-09-14T02:52:06.182Z,100446.63
2022-09-14T02:54:42.778Z,100442.41
2022-09-14T02:57:09.378Z,100444.50
2022-09-14T02:59:35.800Z,100430.03
2022-09-14T03:02:02.278Z,100433.41
2022-09-14T03:04:28.653Z,100423.94
2022-09-14T03:06:55.085Z,100425.00
2022-09-14T03:09:21.463Z,100425.84
2022-09-14T03:11:47.878Z,100423.09
2022-09-14T03:14:14.359Z,100417.88
2022-09-14T03:16:40.782Z,100420.38
2022-09-14T03:19:07.247Z,100416.16
2022-09-14T03:21:33.792Z,100411.97
2022-09-14T03:24:00.722Z,100420.38
2022-09-14T03:26:29.027Z,100422.66
2022-09-14T03:28:58.409Z,100418.91
2022-09-14T03:31:26.363Z,100412.81
2022-09-14T03:33:58.182Z,100405.91
2022-09-14T03:36:26.835Z,100407.78
2022-09-14T03:38:56.400Z,100402.53
2022-09-14T03:41:23.817Z,100398.34
2022-09-14T03:43:50.589Z,100403.56
2022-09-14T03:46:24.684Z,100403.16
2022-09-14T03:48:51.511Z,100396.06
2022-09-14T03:51:18.334Z,100402.34
2022-09-14T03:53:45.284Z,100401.72
2022-09-14T03:56:17.546Z,100396.88
2022-09-14T03:58:45.330Z,100395.41
2022-09-14T04:01:15.667Z,100393.75
2022-09-14T04:03:42.937Z,100393.34
2022-09-14T04:06:10.279Z,100391.66
2022-09-14T04:08:40.001Z,100380.53
2022-09-14T04:11:15.316Z,100385.75
2022-09-14T04:13:42.539Z,100384.72
2022-09-14T04:16:09.234Z,100385.94
2022-09-14T04:18:36.018Z,100381.56
2022-09-14T04:21:08.472Z,100378.03
2022-09-14T04:23:42.295Z,100373.00
2022-09-14T04:26:26.172Z,100376.13
2022-09-14T04:28:52.543Z,100375.91
2022-09-14T04:31:19.436Z,100369.88
2022-09-14T04:33:48.566Z,100369.63
2022-09-14T04:36:17.523Z,100361.91
2022-09-14T04:38:43.948Z,100364.19
2022-09-14T04:41:13.399Z,100356.88
2022-09-14T04:43:40.576Z,100360.22
2022-09-14T04:46:11.334Z,100361.91
2022-09-14T04:48:37.902Z,100360.66
2022-09-14T04:51:06.588Z,100357.06
2022-09-14T04:53:34.723Z,100361.03
2022-09-14T04:56:02.680Z,100363.38
2022-09-14T04:58:29.576Z,100357.91
2022-09-14T05:01:02.129Z,100361.00
2022-09-14T05:03:28.474Z,100351.16
2022-09-14T05:05:54.903Z,100357.63
2022-09-14T05:08:21.292Z,100357.22
2022-09-14T05:10:47.636Z,100358.31
2022-09-14T05:13:15.261Z,100360.00
2022-09-14T05:15:42.624Z,100360.63
2022-09-14T05:18:09.145Z,100365.03
2022-09-14T05:20:35.516Z,100363.50
2022-09-14T05:23:01.903Z,100357.44
2022-09-14T05:25:28.318Z,100357.84
2022-09-14T05:27:54.687Z,100356.41
2022-09-14T05:30:21.103Z,100363.50
2022-09-14T05:32:47.479Z,100367.50
2022-09-14T05:35:13.905Z,100368.34
2022-09-14T05:37:40.389Z,100368.13
2022-09-14T05:40:08.752Z,100358.06
2022-09-14T05:42:35.722Z,100362.66
2022-09-14T05:45:02.280Z,100363.91
2022-09-14T05:47:34.799Z,100363.09
2022-09-14T05:50:03.678Z,100372.53
2022-09-14T05:52:30.037Z,100375.25
2022-09-14T05:54:56.384Z,100377.13
2022-09-14T05:57:22.824Z,100380.91
2022-09-14T05:59:49.170Z,100376.91
2022-09-14T06:02:18.177Z,100370.03
2022-09-14T06:04:44.777Z,100371.53
2022-09-14T06:07:18.440Z,100371.69
2022-09-14T06:09:45.619Z,100377.59
2022-09-14T06:12:12.143Z,100374.47
2022-09-14T06:14:38.572Z,100379.69
2022-09-14T06:17:05.754Z,100377.78
2022-09-14T06:19:32.390Z,100377.59
2022-09-14T06:21:58.796Z,100376.56
2022-09-14T06:24:25.227Z,100366.25
2022-09-14T06:26:51.692Z,100369.22
2022-09-14T06:29:18.298Z,100371.94
2022-09-14T06:31:44.730Z,100367.56
2022-09-14T06:34:11.177Z,100364.84
2022-09-14T06:36:37.608Z,100369.25
2022-09-14T06:39:04.367Z,100371.13
2022-09-14T06:41:32.717Z,100369.44
2022-09-14T06:44:01.600Z,100375.53
2022-09-14T06:46:30.850Z,100374.28
2022-09-14T06:48:59.632Z,100376.16
2022-09-14T06:51:32.469Z,100372.41
2022-09-14T06:54:00.468Z,100368.84
2022-09-14T06:56:28.570Z,100371.13
2022-09-14T06:58:55.140Z,100377.38
2022-09-14T07:01:21.832Z,100379.06
2022-09-14T07:03:50.089Z,100371.97
2022-09-14T07:06:28.346Z,100379.28
2022-09-14T07:08:55.750Z,100378.06
2022-09-14T07:11:26.054Z,100376.16
2022-09-14T07:13:58.957Z,100370.91
2022-09-14T07:16:26.950Z,100367.16
2022-09-14T07:18:56.847Z,100356.50
2022-09-14T07:21:24.286Z,100356.50
2022-09-14T07:23:51.181Z,100358.56
2022-09-14T07:26:26.167Z,100360.47
2022-09-14T07:28:58.205Z,100355.84
2022-09-14T07:31:27.782Z,100351.03
2022-09-14T07:33:56.637Z,100359.63
2022-09-14T07:36:24.989Z,100347.88
2022-09-14T07:38:53.115Z,100348.09
2022-09-14T07:41:21.662Z,100344.34
2022-09-14T07:43:52.770Z,100352.06
2022-09-14T07:46:21.078Z,100347.69
2022-09-14T07:48:49.033Z,100342.25
2022-09-14T07:51:15.771Z,100350.22
2022-09-14T07:53:43.332Z,100352.91
2022-09-14T07:56:11.990Z,100350.22
2022-09-14T07:58:38.996Z,100351.25
2022-09-14T08:01:08.594Z,100351.88
2022-09-14T08:03:40.142Z,100350.81
2022-09-14T08:06:08.899Z,100348.94
2022-09-14T08:08:37.847Z,100345.81
2022-09-14T08:11:06.685Z,100346.22
2022-09-14T08:13:34.942Z,100354.81
2022-09-14T08:16:02.204Z,100334.28
2022-09-14T08:18:30.315Z,100344.13
2022-09-14T08:20:57.288Z,100340.16
2022-09-14T08:23:23.991Z,100338.88
2022-09-14T08:25:50.354Z,100338.06
2022-09-14T08:28:16.734Z,100340.97
2022-09-14T08:30:43.243Z,100338.69
2022-09-14T08:33:09.632Z,100334.91
2022-09-14T08:35:57.582Z,100337.41
2022-09-14T08:38:24.635Z,100340.34
2022-09-14T08:40:51.531Z,100336.97
2022-09-14T08:43:19.587Z,100327.34
2022-09-14T08:45:48.441Z,100326.94
2022-09-14T08:48:31.556Z,100332.81
2022-09-14T08:50:57.969Z,100333.63
2022-09-14T08:53:25.628Z,100332.59
2022-09-14T08:56:00.612Z,100329.84
2022-09-14T08:59:02.322Z,100329.84
2022-09-14T09:01:47.173Z,100332.16
2022-09-14T09:04:51.720Z,100330.66
2022-09-14T09:07:42.950Z,100324.59
2022-09-14T09:10:12.589Z,100323.09
2022-09-14T09:12:53.627Z,100320.16
2022-09-14T09:15:25.719Z,100315.94
2022-09-14T09:17:57.159Z,100316.41
2022-09-14T09:20:26.224Z,100325.63
2022-09-14T09:23:22.774Z,100322.47
2022-09-14T09:25:49.052Z,100325.41
2022-09-14T09:28:16.773Z,100318.72
2022-09-14T09:30:45.031Z,100320.78
2022-09-14T09:33:17.479Z,100325.84
2022-09-14T09:35:44.009Z,100320.59
2022-09-14T09:38:16.159Z,100314.09
2022-09-14T09:40:48.017Z,100319.31
2022-09-14T09:43:28.988Z,100324.13
2022-09-14T09:46:07.607Z,100328.97
2022-09-14T09:48:45.613Z,100318.66
2022-09-14T09:51:28.376Z,100320.97
2022-09-14T09:54:18.924Z,100326.88
2022-09-14T09:57:00.586Z,100311.50
2022-09-14T09:59:40.387Z,100323.00
2022-09-14T10:02:32.157Z,100318.25
2022-09-14T10:05:01.685Z,100325.91
2022-09-14T10:07:31.453Z,100323.47
2022-09-14T10:10:08.358Z,100322.19
2022-09-14T10:12:37.199Z,100318.50
2022-09-14T10:15:13.158Z,100317.94
2022-09-14T10:17:39.629Z,100311.19
2022-09-14T10:20:06.890Z,100312.47
2022-09-14T10:22:35.607Z,100305.94
2022-09-14T10:25:21.044Z,100314.19
2022-09-14T10:27:56.326Z,100315.31
2022-09-14T10:30:26.201Z,100310.25
2022-09-14T10:32:55.216Z,100313.81
2022-09-14T10:35:23.509Z,100307.38
2022-09-14T10:38:05.919Z,100308.88
2022-09-14T10:40:43.924Z,100309.06
2022-09-14T10:43:18.641Z,100314.38
2022-09-14T10:45:52.802Z,100316.31
2022-09-14T10:48:53.170Z,100307.59
2022-09-14T10:51:23.353Z,100310.94
2022-09-14T10:54:24.039Z,100307.41
2022-09-14T10:57:29.199Z,100308.00
2022-09-14T11:00:03.493Z,100304.25
2022-09-14T11:02:41.894Z,100308.44
2022-09-14T11:05:18.541Z,100299.81
2022-09-14T11:07:51.883Z,100306.06
2022-09-14T11:10:33.486Z,100303.25
2022-09-14T11:13:36.419Z,100316.97
2022-09-14T11:16:29.383Z,100307.94
2022-09-14T11:19:07.202Z,100313.97
2022-09-14T11:22:05.766Z,100311.47
2022-09-14T11:24:41.971Z,100314.00
2022-09-14T11:27:22.733Z,100315.34
2022-09-14T11:29:57.849Z,100324.31
2022-09-14T11:32:32.458Z,100321.66
2022-09-14T11:35:44.754Z,100327.22
2022-09-14T11:38:18.078Z,100325.56
2022-09-14T11:41:01.762Z,100321.50
2022-09-14T11:43:37.265Z,100319.16
2022-09-14T11:46:06.581Z,100311.72
2022-09-14T11:49:11.448Z,100312.41
2022-09-14T11:51:47.792Z,100300.19
2022-09-14T11:54:19.881Z,100303.94
2022-09-14T11:56:53.654Z,100303.75
2022-09-14T11:59:39.848Z,100316.66
2022-09-14T12:02:25.031Z,100302.28
2022-09-14T12:05:07.086Z,100298.75
2022-09-14T12:08:00.480Z,100294.53
2022-09-14T12:10:27.643Z,100297.72
2022-09-14T12:13:18.899Z,100290.91
2022-09-14T12:15:46.052Z,100291.13
2022-09-14T12:18:13.361Z,100290.50
2022-09-14T12:20:44.464Z,100290.00
2022-09-14T12:23:29.686Z,100281.69
2022-09-14T12:26:10.297Z,100289.38
2022-09-14T12:28:39.612Z,100284.50
2022-09-14T12:31:06.038Z,100281.09
2022-09-14T12:33:32.764Z,100291.38
2022-09-14T12:36:20.407Z,100290.38
2022-09-14T12:38:49.906Z,100290.69
2022-09-14T12:41:19.226Z,100291.06
2022-09-14T12:43:46.203Z,100281.97
2022-09-14T12:46:21.600Z,100281.31
2022-09-14T12:48:53.071Z,100272.34
2022-09-14T12:51:31.616Z,100268.06
2022-09-14T12:54:09.953Z,100271.28
2022-09-14T12:56:46.722Z,100268.22
2022-09-14T12:59:23.492Z,100249.25
2022-09-14T13:02:47.835Z,100259.31
2022-09-14T13:05:18.008Z,100259.78
2022-09-14T13:07:45.377Z,100250.16
2022-09-14T13:10:23.809Z,100254.69
2022-09-14T13:12:51.580Z,100257.34
2022-09-14T13:15:23.147Z,100249.16
2022-09-14T13:18:16.638Z,100252.22
2022-09-14T13:20:50.969Z,100239.97
2022-09-14T13:23:22.393Z,100244.38
2022-09-14T13:25:49.352Z,100244.19
2022-09-14T13:28:18.650Z,100243.41
2022-09-14T13:30:55.622Z,100232.34
2022-09-14T13:33:22.514Z,100232.47
2022-09-14T13:35:52.136Z,100237.69
2022-09-14T13:38:38.049Z,100231.38
2022-09-14T13:41:15.076Z,100229.84
2022-09-14T13:43:42.911Z,100221.75
2022-09-14T13:46:11.594Z,100227.13
2022-09-14T13:48:40.481Z,100225.19
2022-09-14T13:51:08.106Z,100220.06
2022-09-14T13:53:48.734Z,100221.66
2022-09-14T13:56:34.957Z,100229.34
2022-09-14T13:59:15.495Z,100228.75
2022-09-14T14:02:03.337Z,100221.34
2022-09-14T14:04:34.798Z,100228.16
2022-09-14T14:07:27.848Z,100234.38
2022-09-14T14:09:56.388Z,100225.66
2022-09-14T14:12:32.043Z,100229.09
2022-09-14T14:15:24.310Z,100221.25
2022-09-14T14:17:51.228Z,100217.22
2022-09-14T14:20:26.524Z,100220.66
2022-09-14T14:23:01.799Z,100215.06
2022-09-14T14:25:42.047Z,100210.41
2022-09-14T14:28:29.048Z,100204.59
2022-09-14T14:30:57.720Z,100204.59
2022-09-14T14:33:24.146Z,100207.94
2022-09-14T14:35:52.790Z,100205.03
2022-09-14T14:38:19.422Z,100199.44
2022-09-14T14:40:46.710Z,100197.66
2022-09-14T14:43:20.770Z,100191.94
2022-09-14T14:45:48.225Z,100199.19
2022-09-14T14:48:14.655Z,100187.28
2022-09-14T14:50:41.050Z,100189.34
2022-09-14T14:53:07.727Z,100189.13
2022-09-14T14:55:35.899Z,100184.09
2022-09-14T14:58:06.040Z,100187.44
2022-09-14T15:00:35.090Z,100181.00
2022-09-14T15:03:02.065Z,100179.69
2022-09-14T15:05:28.504Z,100174.69
2022-09-14T15:07:56.071Z,100174.91
2022-09-14T15:10:25.150Z,100165.97
2022-09-14T15:12:52.395Z,100173.97
2022-09-14T15:15:24.249Z,100160.38
2022-09-14T15:17:51.799Z,100156.69
2022-09-14T15:20:19.967Z,100158.00
2022-09-14T15:22:47.485Z,100151.59
2022-09-14T15:25:15.351Z,100154.19
2022-09-14T15:27:41.885Z,100154.88
2022-09-14T15:30:09.545Z,100145.97
2022-09-14T15:32:35.939Z,100149.06
2022-09-14T15:35:02.732Z,100148.66
2022-09-14T15:37:29.090Z,100155.34
2022-09-14T15:39:55.535Z,100168.13
2022-09-14T15:42:22.772Z,100160.81
2022-09-14T15:44:49.172Z,100159.13
2022-09-14T15:47:16.350Z,100160.69
2022-09-14T15:49:43.143Z,100166.63
2022-09-14T15:52:11.015Z,100164.63
2022-09-14T15:54:38.675Z,100173.75
2022-09-14T15:57:07.977Z,100165.66
2022-09-14T15:59:34.787Z,100169.47
2022-09-14T16:02:01.360Z,100162.66
2022-09-14T16:04:27.915Z,100174.78
2022-09-14T16:06:54.390Z,100165.16
2022-09-14T16:09:22.363Z,100183.88
2022-09-14T16:11:48.892Z,100180.66
2022-09-14T16:14:15.281Z,100182.75
2022-09-14T16:16:41.919Z,100188.84
2022-09-14T16:19:11.779Z,100188.72
2022-09-14T16:21:39.029Z,100190.06
2022-09-14T16:24:07.907Z,100192.66
2022-09-14T16:26:36.616Z,100193.06
2022-09-14T16:29:04.506Z,100198.06
2022-09-14T16:31:36.670Z,100192.81
2022-09-14T16:34:06.125Z,100203.19
2022-09-14T16:36:35.252Z,100190.34
2022-09-14T16:39:05.678Z,100199.72
2022-09-14T16:41:32.833Z,100193.84
2022-09-14T16:44:01.810Z,100194.09
2022-09-14T16:46:29.878Z,100194.09
2022-09-14T16:48:58.641Z,100196.59
2022-09-14T16:51:26.929Z,100201.53
2022-09-14T16:53:54.236Z,100203.44
2022-09-14T16:56:26.908Z,100207.78
2022-09-14T16:58:54.917Z,100215.13
2022-09-14T17:01:31.334Z,100201.09
2022-09-14T17:04:00.969Z,100206.63
2022-09-14T17:06:30.006Z,100210.34
2022-09-14T17:09:00.294Z,100218.78
2022-09-14T17:11:28.850Z,100216.13
2022-09-14T17:13:55.449Z,100214.97
2022-09-14T17:16:23.444Z,100219.72
2022-09-14T17:18:52.041Z,100217.44
2022-09-14T17:21:23.784Z,100214.53
2022-09-14T17:23:50.485Z,100217.00
2022-09-14T17:26:19.204Z,100219.22
2022-09-14T17:28:49.463Z,100215.84
2022-09-14T17:31:22.592Z,100225.75
2022-09-14T17:33:49.298Z,100227.88
2022-09-14T17:36:16.654Z,100232.13
2022-09-14T17:38:43.889Z,100224.19
2022-09-14T17:41:12.782Z,100231.31
2022-09-14T17:43:40.092Z,100236.31
2022-09-14T17:46:10.309Z,100241.41
2022-09-14T17:48:39.655Z,100241.66
2022-09-14T17:51:09.651Z,100246.31
2022-09-14T17:53:40.342Z,100244.84
2022-09-14T17:56:08.626Z,100247.81
2022-09-14T17:58:36.294Z,100252.66
2022-09-14T18:01:14.718Z,100249.53
2022-09-14T18:03:42.967Z,100250.19
2022-09-14T18:06:11.857Z,100255.03
2022-09-14T18:08:39.440Z,100258.84
2022-09-14T18:11:16.875Z,100254.66
2022-09-14T18:13:46.132Z,100259.09
2022-09-14T18:16:14.009Z,100262.38
2022-09-14T18:18:40.906Z,100266.38
2022-09-14T18:21:08.256Z,100272.25
2022-09-14T18:23:35.295Z,100271.03
2022-09-14T18:26:03.658Z,100280.84
2022-09-14T18:28:30.017Z,100271.44
2022-09-14T18:31:10.378Z,100278.00
2022-09-14T18:33:37.418Z,100268.72
2022-09-14T18:36:05.715Z,100276.50
2022-09-14T18:38:33.000Z,100272.97
2022-09-14T18:41:04.917Z,100277.34
2022-09-14T18:43:31.645Z,100279.88
2022-09-14T18:45:58.525Z,100282.19
2022-09-14T18:48:25.059Z,100289.72
2022-09-14T18:50:51.609Z,100283.88
2022-09-14T18:53:17.971Z,100283.28
2022-09-14T18:55:44.334Z,100284.53
2022-09-14T18:58:10.721Z,100281.16
2022-09-14T19:00:37.389Z,100285.81
2022-09-14T19:03:04.505Z,100282.44
2022-09-14T19:05:31.826Z,100276.13
2022-09-14T19:07:58.598Z,100281.16
2022-09-14T19:10:25.612Z,100280.34
2022-09-14T19:12:51.984Z,100281.84
2022-09-14T19:15:18.501Z,100280.34
2022-09-14T19:17:44.832Z,100279.16
2022-09-14T19:20:11.554Z,100287.09
2022-09-14T19:22:37.932Z,100286.06
2022-09-14T19:25:05.031Z,100288.78
2022-09-14T19:27:31.393Z,100290.03
2022-09-14T19:30:01.039Z,100297.34
2022-09-14T19:32:27.448Z,100294.84
2022-09-14T19:34:54.322Z,100296.13
2022-09-14T19:37:20.956Z,100292.56
2022-09-14T19:39:47.585Z,100302.19
2022-09-14T19:42:14.004Z,100296.75
2022-09-14T19:44:40.434Z,100300.75
2022-09-14T19:47:06.823Z,100302.59
2022-09-14T19:49:33.382Z,100307.22
2022-09-14T19:51:59.755Z,100305.31
2022-09-14T19:54:26.142Z,100307.03
2022-09-14T19:56:52.588Z,100301.56
2022-09-14T19:59:19.000Z,100303.66
2022-09-14T20:01:45.518Z,100310.38
2022-09-14T20:04:12.594Z,100303.88
2022-09-14T20:06:48.698Z,100306.19
2022-09-14T20:09:18.213Z,100301.16
2022-09-14T20:11:46.190Z,100313.13
2022-09-14T20:14:18.928Z,100313.72
2022-09-14T20:16:48.101Z,100312.47
2022-09-14T20:19:20.423Z,100320.47
2022-09-14T20:21:49.007Z,100320.25
2022-09-14T20:24:18.767Z,100326.13
2022-09-14T20:26:49.908Z,100328.63
2022-09-14T20:29:18.045Z,100325.28
2022-09-14T20:31:45.346Z,100324.00
2022-09-14T20:34:12.843Z,100314.38
2022-09-14T20:36:39.541Z,100319.00
2022-09-14T20:39:06.223Z,100321.09
2022-09-14T20:41:34.901Z,100310.81
2022-09-14T20:44:02.146Z,100319.84
2022-09-14T20:46:31.754Z,100323.78
2022-09-14T20:48:58.568Z,100327.97
2022-09-14T20:51:25.491Z,100332.81
2022-09-14T20:53:52.321Z,100325.91
2022-09-14T20:56:21.274Z,100329.06
2022-09-14T20:58:48.706Z,100326.94
2022-09-14T21:01:17.653Z,100328.19
2022-09-14T21:03:45.408Z,100333.81
2022-09-14T21:06:15.065Z,100338.00
2022-09-14T21:08:42.174Z,100332.53
2022-09-14T21:11:15.029Z,100340.09
2022-09-14T21:13:42.389Z,100340.28
2022-09-14T21:16:18.530Z,100348.84
2022-09-14T21:18:46.552Z,100348.00
2022-09-14T21:21:15.208Z,100354.50
2022-09-14T21:23:41.667Z,100351.34
2022-09-14T21:26:10.002Z,100366.41
2022-09-14T21:28:38.170Z,100359.69
2022-09-14T21:31:07.663Z,100362.03
2022-09-14T21:33:36.891Z,100363.69
2022-09-14T21:36:15.914Z,100357.00
2022-09-14T21:38:43.108Z,100360.84
2022-09-14T21:41:11.149Z,100360.00
2022-09-14T21:43:41.911Z,100357.44
2022-09-14T21:46:10.013Z,100354.50
2022-09-14T21:48:37.673Z,100359.13
2022-09-14T21:51:06.979Z,100366.25
2022-09-14T21:53:34.447Z,100359.31
2022-09-14T21:56:05.808Z,100367.28
2022-09-14T21:58:33.037Z,100367.31
2022-09-14T22:01:01.629Z,100368.75
2022-09-14T22:03:28.833Z,100366.09
2022-09-14T22:05:57.128Z,100369.03
2022-09-14T22:08:23.613Z,100360.56
2022-09-14T22:10:50.043Z,100364.75
2022-09-14T22:13:16.756Z,100365.63
2022-09-14T22:15:43.262Z,100371.88
2022-09-14T22:18:09.672Z,100364.38
2022-09-14T22:20:36.064Z,100362.66
2022-09-14T22:23:02.469Z,100361.19
2022-09-14T22:25:29.003Z,100363.06
2022-09-14T22:27:55.348Z,100359.28
2022-09-14T22:30:21.743Z,100362.63
2022-09-14T22:32:48.115Z,100356.56
2022-09-14T22:35:14.830Z,100352.56
2022-09-14T22:37:41.179Z,100350.91
2022-09-14T22:40:08.171Z,100356.97
2022-09-14T22:42:35.343Z,100356.94
2022-09-14T22:45:01.725Z,100364.25
2022-09-14T22:47:28.092Z,100367.38
2022-09-14T22:49:54.610Z,100367.97
2022-09-14T22:52:20.990Z,100373.81
2022-09-14T22:54:47.335Z,100367.75
2022-09-14T22:57:13.697Z,100369.84
2022-09-14T22:59:40.159Z,100371.97
2022-09-14T23:02:06.602Z,100376.94
2022-09-14T23:04:33.569Z,100375.22
2022-09-14T23:07:00.280Z,100376.28
2022-09-14T23:09:26.642Z,100376.28
2022-09-14T23:11:53.267Z,100370.00
2022-09-14T23:14:19.666Z,100365.66
2022-09-14T23:16:46.141Z,100371.50
2022-09-14T23:19:15.870Z,100375.88
2022-09-14T23:21:42.267Z,100374.84
2022-09-14T23:24:10.923Z,100377.41
2022-09-14T23:26:37.630Z,100392.50
2022-09-14T23:29:07.004Z,100388.94
2022-09-14T23:31:33.478Z,100393.31
2022-09-14T23:34:02.105Z,100393.31
2022-09-14T23:36:29.872Z,100392.53
2022-09-14T23:38:57.062Z,100387.53
2022-09-14T23:41:25.287Z,100387.75
2022-09-14T23:43:52.318Z,100394.22
2022-09-14T23:46:19.646Z,100386.47
2022-09-14T23:48:46.149Z,100387.13
2022-09-14T23:51:13.298Z,100380.84
2022-09-14T23:53:40.210Z,100383.38
2022-09-14T23:56:07.185Z,100387.69
2022-09-14T23:58:33.757Z,100389.19
